sensor_id;sensor_type;location;lat;lon;timestamp;P1;durP1;ratioP1;P2;durP2;ratioP2
18820;SDS011;9539;59.332;18.034;2023-04-08T00:00:25;3.53;;;2.05;;
18820;SDS011;9539;59.332;18.034;2023-04-08T00:02:46;2.45;;;2.20;;
18820;SDS011;9539;59.332;18.034;2023-04-08T00:05:08;2.35;;;2.00;;
18820;SDS011;9539;59.332;18.034;2023-04-08T00:07:30;3.22;;;2.40;;
18820;SDS011;9539;59.332;18.034;2023-04-08T00:09:51;5.43;;;2.25;;
18820;SDS011;9539;59.332;18.034;2023-04-08T00:12:13;2.75;;;1.92;;
18820;SDS011;9539;59.332;18.034;2023-04-08T00:14:36;2.88;;;2.20;;
18820;SDS011;9539;59.332;18.034;2023-04-08T00:16:58;3.90;;;2.40;;
18820;SDS011;9539;59.332;18.034;2023-04-08T00:19:19;3.53;;;2.20;;
18820;SDS011;9539;59.332;18.034;2023-04-08T00:21:41;2.50;;;2.10;;
18820;SDS011;9539;59.332;18.034;2023-04-08T00:24:03;2.20;;;1.98;;
18820;SDS011;9539;59.332;18.034;2023-04-08T00:26:24;2.08;;;1.85;;
18820;SDS011;9539;59.332;18.034;2023-04-08T00:28:46;3.70;;;2.13;;
18820;SDS011;9539;59.332;18.034;2023-04-08T00:31:09;2.42;;;1.90;;
18820;SDS011;9539;59.332;18.034;2023-04-08T00:33:31;3.35;;;2.20;;
18820;SDS011;9539;59.332;18.034;2023-04-08T00:35:52;2.30;;;1.75;;
18820;SDS011;9539;59.332;18.034;2023-04-08T00:38:14;1.92;;;1.73;;
18820;SDS011;9539;59.332;18.034;2023-04-08T00:40:36;2.35;;;2.10;;
18820;SDS011;9539;59.332;18.034;2023-04-08T00:42:57;1.88;;;1.65;;
18820;SDS011;9539;59.332;18.034;2023-04-08T00:45:19;6.55;;;2.60;;
18820;SDS011;9539;59.332;18.034;2023-04-08T00:47:42;1.77;;;1.67;;
18820;SDS011;9539;59.332;18.034;2023-04-08T00:50:06;3.50;;;1.85;;
18820;SDS011;9539;59.332;18.034;2023-04-08T00:52:28;2.03;;;1.70;;
18820;SDS011;9539;59.332;18.034;2023-04-08T00:54:50;2.40;;;1.90;;
18820;SDS011;9539;59.332;18.034;2023-04-08T00:57:11;2.50;;;1.98;;
18820;SDS011;9539;59.332;18.034;2023-04-08T00:59:33;2.75;;;1.90;;
18820;SDS011;9539;59.332;18.034;2023-04-08T01:01:56;2.22;;;1.90;;
18820;SDS011;9539;59.332;18.034;2023-04-08T01:04:23;2.90;;;2.10;;
18820;SDS011;9539;59.332;18.034;2023-04-08T01:06:48;4.50;;;2.03;;
18820;SDS011;9539;59.332;18.034;2023-04-08T01:09:10;2.30;;;2.03;;
18820;SDS011;9539;59.332;18.034;2023-04-08T01:11:33;5.03;;;2.13;;
18820;SDS011;9539;59.332;18.034;2023-04-08T01:13:55;3.30;;;1.90;;
18820;SDS011;9539;59.332;18.034;2023-04-08T01:16:18;3.15;;;1.98;;
18820;SDS011;9539;59.332;18.034;2023-04-08T01:18:40;2.13;;;1.65;;
18820;SDS011;9539;59.332;18.034;2023-04-08T01:21:04;4.35;;;1.92;;
18820;SDS011;9539;59.332;18.034;2023-04-08T01:23:29;3.30;;;1.90;;
18820;SDS011;9539;59.332;18.034;2023-04-08T01:25:55;4.53;;;1.90;;
18820;SDS011;9539;59.332;18.034;2023-04-08T01:28:17;3.28;;;1.80;;
18820;SDS011;9539;59.332;18.034;2023-04-08T01:30:40;2.92;;;1.63;;
18820;SDS011;9539;59.332;18.034;2023-04-08T01:33:02;3.40;;;1.80;;
18820;SDS011;9539;59.332;18.034;2023-04-08T01:35:25;3.25;;;2.00;;
18820;SDS011;9539;59.332;18.034;2023-04-08T01:37:48;1.70;;;1.60;;
18820;SDS011;9539;59.332;18.034;2023-04-08T01:40:10;5.53;;;1.85;;
18820;SDS011;9539;59.332;18.034;2023-04-08T01:42:34;2.53;;;2.03;;
18820;SDS011;9539;59.332;18.034;2023-04-08T01:44:56;4.47;;;1.95;;
18820;SDS011;9539;59.332;18.034;2023-04-08T01:47:19;2.38;;;1.70;;
18820;SDS011;9539;59.332;18.034;2023-04-08T01:49:41;4.07;;;1.63;;
18820;SDS011;9539;59.332;18.034;2023-04-08T01:52:03;3.45;;;1.92;;
18820;SDS011;9539;59.332;18.034;2023-04-08T01:54:25;3.08;;;1.70;;
18820;SDS011;9539;59.332;18.034;2023-04-08T01:56:47;2.78;;;1.75;;
18820;SDS011;9539;59.332;18.034;2023-04-08T01:59:12;2.55;;;1.98;;
18820;SDS011;9539;59.332;18.034;2023-04-08T02:01:34;1.92;;;1.73;;
18820;SDS011;9539;59.332;18.034;2023-04-08T02:03:56;1.77;;;1.65;;
18820;SDS011;9539;59.332;18.034;2023-04-08T02:06:18;3.55;;;1.88;;
18820;SDS011;9539;59.332;18.034;2023-04-08T02:08:40;2.08;;;1.65;;
18820;SDS011;9539;59.332;18.034;2023-04-08T02:11:02;2.25;;;1.95;;
18820;SDS011;9539;59.332;18.034;2023-04-08T02:13:23;2.38;;;1.70;;
18820;SDS011;9539;59.332;18.034;2023-04-08T02:15:51;5.15;;;1.80;;
18820;SDS011;9539;59.332;18.034;2023-04-08T02:18:16;4.82;;;2.00;;
18820;SDS011;9539;59.332;18.034;2023-04-08T02:20:42;2.88;;;1.70;;
18820;SDS011;9539;59.332;18.034;2023-04-08T02:23:06;5.88;;;1.80;;
18820;SDS011;9539;59.332;18.034;2023-04-08T02:25:29;3.28;;;1.85;;
18820;SDS011;9539;59.332;18.034;2023-04-08T02:27:55;3.42;;;1.80;;
18820;SDS011;9539;59.332;18.034;2023-04-08T02:30:17;1.73;;;1.63;;
18820;SDS011;9539;59.332;18.034;2023-04-08T02:32:40;2.65;;;1.83;;
18820;SDS011;9539;59.332;18.034;2023-04-08T02:35:03;3.53;;;2.00;;
18820;SDS011;9539;59.332;18.034;2023-04-08T02:37:25;2.28;;;1.80;;
18820;SDS011;9539;59.332;18.034;2023-04-08T02:39:48;2.05;;;1.85;;
18820;SDS011;9539;59.332;18.034;2023-04-08T02:42:09;3.50;;;1.83;;
18820;SDS011;9539;59.332;18.034;2023-04-08T02:44:31;2.30;;;1.85;;
18820;SDS011;9539;59.332;18.034;2023-04-08T02:46:53;2.50;;;1.80;;
18820;SDS011;9539;59.332;18.034;2023-04-08T02:49:16;10.60;;;2.35;;
18820;SDS011;9539;59.332;18.034;2023-04-08T02:51:38;2.70;;;1.60;;
18820;SDS011;9539;59.332;18.034;2023-04-08T02:53:59;2.42;;;1.80;;
18820;SDS011;9539;59.332;18.034;2023-04-08T02:56:21;1.90;;;1.60;;
18820;SDS011;9539;59.332;18.034;2023-04-08T02:58:42;1.88;;;1.77;;
18820;SDS011;9539;59.332;18.034;2023-04-08T03:01:04;2.50;;;1.75;;
18820;SDS011;9539;59.332;18.034;2023-04-08T03:03:25;2.17;;;1.98;;
18820;SDS011;9539;59.332;18.034;2023-04-08T03:05:50;2.00;;;1.70;;
18820;SDS011;9539;59.332;18.034;2023-04-08T03:08:11;1.70;;;1.60;;
18820;SDS011;9539;59.332;18.034;2023-04-08T03:10:33;3.17;;;1.55;;
18820;SDS011;9539;59.332;18.034;2023-04-08T03:12:54;13.40;;;2.28;;
18820;SDS011;9539;59.332;18.034;2023-04-08T03:15:16;4.93;;;1.60;;
18820;SDS011;9539;59.332;18.034;2023-04-08T03:17:38;2.13;;;1.90;;
18820;SDS011;9539;59.332;18.034;2023-04-08T03:19:59;2.85;;;1.95;;
18820;SDS011;9539;59.332;18.034;2023-04-08T03:22:25;3.13;;;1.75;;
18820;SDS011;9539;59.332;18.034;2023-04-08T03:24:46;2.10;;;1.75;;
18820;SDS011;9539;59.332;18.034;2023-04-08T03:27:08;1.70;;;1.60;;
18820;SDS011;9539;59.332;18.034;2023-04-08T03:29:31;1.90;;;1.75;;
18820;SDS011;9539;59.332;18.034;2023-04-08T03:31:53;1.83;;;1.70;;
18820;SDS011;9539;59.332;18.034;2023-04-08T03:34:14;1.83;;;1.70;;
18820;SDS011;9539;59.332;18.034;2023-04-08T03:36:36;2.88;;;1.60;;
18820;SDS011;9539;59.332;18.034;2023-04-08T03:38:59;2.17;;;1.70;;
18820;SDS011;9539;59.332;18.034;2023-04-08T03:41:22;2.28;;;1.83;;
18820;SDS011;9539;59.332;18.034;2023-04-08T03:43:44;1.70;;;1.58;;
18820;SDS011;9539;59.332;18.034;2023-04-08T03:46:06;2.83;;;1.70;;
18820;SDS011;9539;59.332;18.034;2023-04-08T03:48:27;2.70;;;1.88;;
18820;SDS011;9539;59.332;18.034;2023-04-08T03:50:49;3.05;;;1.90;;
18820;SDS011;9539;59.332;18.034;2023-04-08T03:53:10;3.80;;;1.90;;
18820;SDS011;9539;59.332;18.034;2023-04-08T03:55:33;3.50;;;1.80;;
18820;SDS011;9539;59.332;18.034;2023-04-08T03:57:55;1.92;;;1.73;;
18820;SDS011;9539;59.332;18.034;2023-04-08T04:00:17;1.85;;;1.70;;
18820;SDS011;9539;59.332;18.034;2023-04-08T04:02:38;2.65;;;1.58;;
18820;SDS011;9539;59.332;18.034;2023-04-08T04:05:00;1.70;;;1.60;;
18820;SDS011;9539;59.332;18.034;2023-04-08T04:07:21;2.08;;;1.70;;
18820;SDS011;9539;59.332;18.034;2023-04-08T04:09:43;2.47;;;1.85;;
18820;SDS011;9539;59.332;18.034;2023-04-08T04:12:06;3.78;;;2.00;;
18820;SDS011;9539;59.332;18.034;2023-04-08T04:14:28;3.53;;;1.52;;
18820;SDS011;9539;59.332;18.034;2023-04-08T04:16:49;4.47;;;1.80;;
18820;SDS011;9539;59.332;18.034;2023-04-08T04:19:11;2.65;;;1.60;;
18820;SDS011;9539;59.332;18.034;2023-04-08T04:21:32;2.58;;;1.70;;
18820;SDS011;9539;59.332;18.034;2023-04-08T04:23:54;1.98;;;1.50;;
18820;SDS011;9539;59.332;18.034;2023-04-08T04:26:16;1.85;;;1.58;;
18820;SDS011;9539;59.332;18.034;2023-04-08T04:28:39;2.25;;;1.90;;
18820;SDS011;9539;59.332;18.034;2023-04-08T04:31:00;3.20;;;1.75;;
18820;SDS011;9539;59.332;18.034;2023-04-08T04:33:22;3.13;;;1.60;;
18820;SDS011;9539;59.332;18.034;2023-04-08T04:35:44;1.80;;;1.35;;
18820;SDS011;9539;59.332;18.034;2023-04-08T04:38:05;1.73;;;1.58;;
18820;SDS011;9539;59.332;18.034;2023-04-08T04:40:31;2.13;;;1.80;;
18820;SDS011;9539;59.332;18.034;2023-04-08T04:42:53;2.80;;;1.38;;
18820;SDS011;9539;59.332;18.034;2023-04-08T04:45:16;3.03;;;1.67;;
18820;SDS011;9539;59.332;18.034;2023-04-08T04:47:37;1.98;;;1.80;;
18820;SDS011;9539;59.332;18.034;2023-04-08T04:49:59;4.18;;;1.60;;
18820;SDS011;9539;59.332;18.034;2023-04-08T04:52:21;6.43;;;1.70;;
18820;SDS011;9539;59.332;18.034;2023-04-08T04:54:42;2.42;;;1.50;;
18820;SDS011;9539;59.332;18.034;2023-04-08T04:57:04;2.72;;;1.75;;
18820;SDS011;9539;59.332;18.034;2023-04-08T04:59:26;2.17;;;1.58;;
18820;SDS011;9539;59.332;18.034;2023-04-08T05:01:49;2.97;;;1.77;;
18820;SDS011;9539;59.332;18.034;2023-04-08T05:04:11;2.55;;;1.73;;
18820;SDS011;9539;59.332;18.034;2023-04-08T05:06:32;1.60;;;1.50;;
18820;SDS011;9539;59.332;18.034;2023-04-08T05:08:54;1.58;;;1.40;;
18820;SDS011;9539;59.332;18.034;2023-04-08T05:11:15;2.03;;;1.40;;
18820;SDS011;9539;59.332;18.034;2023-04-08T05:13:38;2.42;;;1.70;;
18820;SDS011;9539;59.332;18.034;2023-04-08T05:15:59;1.40;;;1.30;;
18820;SDS011;9539;59.332;18.034;2023-04-08T05:18:23;3.55;;;1.70;;
18820;SDS011;9539;59.332;18.034;2023-04-08T05:20:44;2.95;;;1.70;;
18820;SDS011;9539;59.332;18.034;2023-04-08T05:23:06;1.60;;;1.50;;
18820;SDS011;9539;59.332;18.034;2023-04-08T05:25:28;2.55;;;1.60;;
18820;SDS011;9539;59.332;18.034;2023-04-08T05:27:50;5.30;;;1.60;;
18820;SDS011;9539;59.332;18.034;2023-04-08T05:30:11;1.65;;;1.38;;
18820;SDS011;9539;59.332;18.034;2023-04-08T05:32:33;7.18;;;1.70;;
18820;SDS011;9539;59.332;18.034;2023-04-08T05:34:56;6.55;;;1.63;;
18820;SDS011;9539;59.332;18.034;2023-04-08T05:37:18;4.15;;;1.40;;
18820;SDS011;9539;59.332;18.034;2023-04-08T05:39:39;1.67;;;1.50;;
18820;SDS011;9539;59.332;18.034;2023-04-08T05:42:01;2.53;;;1.40;;
18820;SDS011;9539;59.332;18.034;2023-04-08T05:44:23;1.45;;;1.35;;
18820;SDS011;9539;59.332;18.034;2023-04-08T05:46:45;2.85;;;1.48;;
18820;SDS011;9539;59.332;18.034;2023-04-08T05:49:06;1.60;;;1.50;;
18820;SDS011;9539;59.332;18.034;2023-04-08T05:51:29;1.58;;;1.35;;
18820;SDS011;9539;59.332;18.034;2023-04-08T05:53:51;4.55;;;1.50;;
18820;SDS011;9539;59.332;18.034;2023-04-08T05:56:12;2.40;;;1.63;;
18820;SDS011;9539;59.332;18.034;2023-04-08T05:58:34;2.65;;;1.30;;
18820;SDS011;9539;59.332;18.034;2023-04-08T06:00:56;2.45;;;1.63;;
18820;SDS011;9539;59.332;18.034;2023-04-08T06:03:17;2.47;;;1.60;;
18820;SDS011;9539;59.332;18.034;2023-04-08T06:05:39;2.22;;;1.58;;
18820;SDS011;9539;59.332;18.034;2023-04-08T06:08:02;2.72;;;1.50;;
18820;SDS011;9539;59.332;18.034;2023-04-08T06:10:24;1.88;;;1.38;;
18820;SDS011;9539;59.332;18.034;2023-04-08T06:12:45;2.60;;;1.30;;
18820;SDS011;9539;59.332;18.034;2023-04-08T06:15:07;2.03;;;1.50;;
18820;SDS011;9539;59.332;18.034;2023-04-08T06:17:29;5.50;;;1.63;;
18820;SDS011;9539;59.332;18.034;2023-04-08T06:19:51;4.78;;;1.50;;
18820;SDS011;9539;59.332;18.034;2023-04-08T06:22:13;1.55;;;1.45;;
18820;SDS011;9539;59.332;18.034;2023-04-08T06:24:36;1.95;;;1.65;;
18820;SDS011;9539;59.332;18.034;2023-04-08T06:26:58;1.40;;;1.30;;
18820;SDS011;9539;59.332;18.034;2023-04-08T06:29:19;1.63;;;1.30;;
18820;SDS011;9539;59.332;18.034;2023-04-08T06:31:41;2.63;;;1.60;;
18820;SDS011;9539;59.332;18.034;2023-04-08T06:34:02;1.70;;;1.40;;
18820;SDS011;9539;59.332;18.034;2023-04-08T06:36:24;2.45;;;1.65;;
18820;SDS011;9539;59.332;18.034;2023-04-08T06:38:47;2.35;;;1.50;;
18820;SDS011;9539;59.332;18.034;2023-04-08T06:41:10;5.18;;;1.55;;
18820;SDS011;9539;59.332;18.034;2023-04-08T06:43:32;1.77;;;1.40;;
18820;SDS011;9539;59.332;18.034;2023-04-08T06:45:53;2.60;;;1.85;;
18820;SDS011;9539;59.332;18.034;2023-04-08T06:48:15;2.03;;;1.55;;
18820;SDS011;9539;59.332;18.034;2023-04-08T06:50:37;2.22;;;1.20;;
18820;SDS011;9539;59.332;18.034;2023-04-08T06:52:58;1.73;;;1.55;;
18820;SDS011;9539;59.332;18.034;2023-04-08T06:55:20;1.30;;;1.20;;
18820;SDS011;9539;59.332;18.034;2023-04-08T06:57:43;2.78;;;1.45;;
18820;SDS011;9539;59.332;18.034;2023-04-08T07:00:05;1.40;;;1.30;;
18820;SDS011;9539;59.332;18.034;2023-04-08T07:02:27;3.78;;;1.50;;
18820;SDS011;9539;59.332;18.034;2023-04-08T07:04:49;2.72;;;1.55;;
18820;SDS011;9539;59.332;18.034;2023-04-08T07:07:11;1.55;;;1.45;;
18820;SDS011;9539;59.332;18.034;2023-04-08T07:09:32;2.05;;;1.75;;
18820;SDS011;9539;59.332;18.034;2023-04-08T07:11:55;1.85;;;1.70;;
18820;SDS011;9539;59.332;18.034;2023-04-08T07:14:18;3.58;;;1.40;;
18820;SDS011;9539;59.332;18.034;2023-04-08T07:16:40;3.55;;;1.50;;
18820;SDS011;9539;59.332;18.034;2023-04-08T07:19:02;1.80;;;1.50;;
18820;SDS011;9539;59.332;18.034;2023-04-08T07:21:23;1.30;;;1.17;;
18820;SDS011;9539;59.332;18.034;2023-04-08T07:23:46;1.48;;;1.38;;
18820;SDS011;9539;59.332;18.034;2023-04-08T07:26:07;2.35;;;1.40;;
18820;SDS011;9539;59.332;18.034;2023-04-08T07:28:29;1.50;;;1.40;;
18820;SDS011;9539;59.332;18.034;2023-04-08T07:30:52;3.80;;;1.30;;
18820;SDS011;9539;59.332;18.034;2023-04-08T07:33:14;1.88;;;1.30;;
18820;SDS011;9539;59.332;18.034;2023-04-08T07:35:35;2.75;;;1.33;;
18820;SDS011;9539;59.332;18.034;2023-04-08T07:37:57;2.42;;;1.50;;
18820;SDS011;9539;59.332;18.034;2023-04-08T07:40:19;1.38;;;1.27;;
18820;SDS011;9539;59.332;18.034;2023-04-08T07:42:41;2.95;;;1.52;;
18820;SDS011;9539;59.332;18.034;2023-04-08T07:45:02;2.30;;;1.60;;
18820;SDS011;9539;59.332;18.034;2023-04-08T07:47:25;3.85;;;1.60;;
18820;SDS011;9539;59.332;18.034;2023-04-08T07:49:47;1.52;;;1.30;;
18820;SDS011;9539;59.332;18.034;2023-04-08T07:52:09;1.42;;;1.33;;
18820;SDS011;9539;59.332;18.034;2023-04-08T07:54:30;1.75;;;1.23;;
18820;SDS011;9539;59.332;18.034;2023-04-08T07:56:53;3.50;;;1.27;;
18820;SDS011;9539;59.332;18.034;2023-04-08T07:59:14;2.20;;;1.35;;
18820;SDS011;9539;59.332;18.034;2023-04-08T08:01:36;1.45;;;1.35;;
18820;SDS011;9539;59.332;18.034;2023-04-08T08:03:59;1.65;;;1.30;;
18820;SDS011;9539;59.332;18.034;2023-04-08T08:06:21;2.05;;;1.50;;
18820;SDS011;9539;59.332;18.034;2023-04-08T08:08:42;3.50;;;1.35;;
18820;SDS011;9539;59.332;18.034;2023-04-08T08:11:04;4.18;;;1.42;;
18820;SDS011;9539;59.332;18.034;2023-04-08T08:13:26;2.13;;;1.58;;
18820;SDS011;9539;59.332;18.034;2023-04-08T08:15:50;1.60;;;1.17;;
18820;SDS011;9539;59.332;18.034;2023-04-08T08:18:12;1.58;;;1.20;;
18820;SDS011;9539;59.332;18.034;2023-04-08T08:20:35;3.47;;;1.13;;
18820;SDS011;9539;59.332;18.034;2023-04-08T08:22:57;3.42;;;1.25;;
18820;SDS011;9539;59.332;18.034;2023-04-08T08:25:19;3.80;;;1.30;;
18820;SDS011;9539;59.332;18.034;2023-04-08T08:27:40;3.97;;;1.30;;
18820;SDS011;9539;59.332;18.034;2023-04-08T08:30:02;1.38;;;1.10;;
18820;SDS011;9539;59.332;18.034;2023-04-08T08:32:24;2.75;;;1.20;;
18820;SDS011;9539;59.332;18.034;2023-04-08T08:34:45;13.57;;;1.60;;
18820;SDS011;9539;59.332;18.034;2023-04-08T08:37:08;1.45;;;1.20;;
18820;SDS011;9539;59.332;18.034;2023-04-08T08:39:30;3.78;;;1.13;;
18820;SDS011;9539;59.332;18.034;2023-04-08T08:41:52;1.73;;;1.13;;
18820;SDS011;9539;59.332;18.034;2023-04-08T08:44:15;4.25;;;1.20;;
18820;SDS011;9539;59.332;18.034;2023-04-08T08:46:37;4.30;;;1.30;;
18820;SDS011;9539;59.332;18.034;2023-04-08T08:49:01;1.20;;;1.10;;
18820;SDS011;9539;59.332;18.034;2023-04-08T08:51:23;1.23;;;1.00;;
18820;SDS011;9539;59.332;18.034;2023-04-08T08:53:46;2.40;;;1.10;;
18820;SDS011;9539;59.332;18.034;2023-04-08T08:56:08;2.28;;;1.20;;
18820;SDS011;9539;59.332;18.034;2023-04-08T08:58:29;1.70;;;1.23;;
18820;SDS011;9539;59.332;18.034;2023-04-08T09:00:51;4.95;;;1.40;;
18820;SDS011;9539;59.332;18.034;2023-04-08T09:03:14;1.00;;;0.90;;
18820;SDS011;9539;59.332;18.034;2023-04-08T09:05:39;4.75;;;1.20;;
18820;SDS011;9539;59.332;18.034;2023-04-08T09:08:09;5.43;;;1.23;;
18820;SDS011;9539;59.332;18.034;2023-04-08T09:10:44;1.13;;;1.02;;
18820;SDS011;9539;59.332;18.034;2023-04-08T09:13:06;1.85;;;1.08;;
18820;SDS011;9539;59.332;18.034;2023-04-08T09:15:27;1.95;;;1.00;;
18820;SDS011;9539;59.332;18.034;2023-04-08T09:17:49;1.00;;;1.00;;
18820;SDS011;9539;59.332;18.034;2023-04-08T09:20:11;3.08;;;1.08;;
18820;SDS011;9539;59.332;18.034;2023-04-08T09:22:34;2.55;;;1.10;;
18820;SDS011;9539;59.332;18.034;2023-04-08T09:24:56;1.35;;;0.98;;
18820;SDS011;9539;59.332;18.034;2023-04-08T09:30:14;1.10;;;1.00;;
18820;SDS011;9539;59.332;18.034;2023-04-08T09:32:45;5.40;;;1.48;;
18820;SDS011;9539;59.332;18.034;2023-04-08T09:35:07;1.98;;;1.27;;
18820;SDS011;9539;59.332;18.034;2023-04-08T09:37:29;5.15;;;1.20;;
18820;SDS011;9539;59.332;18.034;2023-04-08T09:39:51;1.95;;;1.42;;
18820;SDS011;9539;59.332;18.034;2023-04-08T09:42:12;1.52;;;1.10;;
18820;SDS011;9539;59.332;18.034;2023-04-08T09:44:34;2.05;;;1.10;;
18820;SDS011;9539;59.332;18.034;2023-04-08T09:47:01;3.30;;;1.15;;
18820;SDS011;9539;59.332;18.034;2023-04-08T09:49:26;1.58;;;1.10;;
18820;SDS011;9539;59.332;18.034;2023-04-08T09:51:52;1.10;;;1.00;;
18820;SDS011;9539;59.332;18.034;2023-04-08T09:54:17;1.33;;;1.20;;
18820;SDS011;9539;59.332;18.034;2023-04-08T09:56:40;4.38;;;1.30;;
18820;SDS011;9539;59.332;18.034;2023-04-08T09:59:08;1.33;;;1.00;;
18820;SDS011;9539;59.332;18.034;2023-04-08T10:01:31;1.42;;;1.10;;
18820;SDS011;9539;59.332;18.034;2023-04-08T10:03:56;2.55;;;1.30;;
18820;SDS011;9539;59.332;18.034;2023-04-08T10:06:18;5.45;;;1.35;;
18820;SDS011;9539;59.332;18.034;2023-04-08T10:08:42;3.70;;;1.15;;
18820;SDS011;9539;59.332;18.034;2023-04-08T10:11:04;4.85;;;1.10;;
18820;SDS011;9539;59.332;18.034;2023-04-08T10:13:26;1.27;;;1.17;;
18820;SDS011;9539;59.332;18.034;2023-04-08T10:15:48;1.80;;;1.30;;
18820;SDS011;9539;59.332;18.034;2023-04-08T10:20:51;10.65;;;1.40;;
18820;SDS011;9539;59.332;18.034;2023-04-08T10:23:13;7.15;;;1.40;;
18820;SDS011;9539;59.332;18.034;2023-04-08T10:25:36;2.55;;;0.95;;
18820;SDS011;9539;59.332;18.034;2023-04-08T10:27:57;2.75;;;1.10;;
18820;SDS011;9539;59.332;18.034;2023-04-08T10:32:56;2.47;;;1.17;;
18820;SDS011;9539;59.332;18.034;2023-04-08T10:35:23;1.10;;;1.00;;
18820;SDS011;9539;59.332;18.034;2023-04-08T10:37:50;5.03;;;1.30;;
18820;SDS011;9539;59.332;18.034;2023-04-08T10:40:17;1.13;;;1.05;;
18820;SDS011;9539;59.332;18.034;2023-04-08T10:42:39;4.78;;;1.10;;
18820;SDS011;9539;59.332;18.034;2023-04-08T10:45:01;4.68;;;1.30;;
18820;SDS011;9539;59.332;18.034;2023-04-08T10:47:25;4.75;;;1.00;;
18820;SDS011;9539;59.332;18.034;2023-04-08T10:49:47;2.10;;;1.15;;
18820;SDS011;9539;59.332;18.034;2023-04-08T10:52:09;1.65;;;1.17;;
18820;SDS011;9539;59.332;18.034;2023-04-08T10:54:32;1.65;;;1.00;;
18820;SDS011;9539;59.332;18.034;2023-04-08T10:56:54;1.15;;;1.00;;
18820;SDS011;9539;59.332;18.034;2023-04-08T10:59:16;2.88;;;1.00;;
18820;SDS011;9539;59.332;18.034;2023-04-08T11:01:39;7.07;;;1.40;;
18820;SDS011;9539;59.332;18.034;2023-04-08T11:04:05;1.05;;;0.98;;
18820;SDS011;9539;59.332;18.034;2023-04-08T11:06:27;0.93;;;0.93;;
18820;SDS011;9539;59.332;18.034;2023-04-08T11:08:49;1.23;;;1.00;;
18820;SDS011;9539;59.332;18.034;2023-04-08T11:11:12;2.33;;;1.00;;
18820;SDS011;9539;59.332;18.034;2023-04-08T11:13:35;2.95;;;1.40;;
18820;SDS011;9539;59.332;18.034;2023-04-08T11:15:57;4.70;;;1.05;;
18820;SDS011;9539;59.332;18.034;2023-04-08T11:18:19;4.75;;;1.27;;
18820;SDS011;9539;59.332;18.034;2023-04-08T11:20:42;1.00;;;0.90;;
18820;SDS011;9539;59.332;18.034;2023-04-08T11:23:04;3.75;;;1.00;;
18820;SDS011;9539;59.332;18.034;2023-04-08T11:25:32;3.63;;;1.42;;
18820;SDS011;9539;59.332;18.034;2023-04-08T11:27:55;6.43;;;1.88;;
18820;SDS011;9539;59.332;18.034;2023-04-08T11:30:17;4.10;;;1.10;;
18820;SDS011;9539;59.332;18.034;2023-04-08T11:32:39;0.95;;;0.95;;
18820;SDS011;9539;59.332;18.034;2023-04-08T11:35:01;4.55;;;1.00;;
18820;SDS011;9539;59.332;18.034;2023-04-08T11:37:24;3.47;;;1.30;;
18820;SDS011;9539;59.332;18.034;2023-04-08T11:39:46;1.35;;;1.10;;
18820;SDS011;9539;59.332;18.034;2023-04-08T11:42:08;6.43;;;1.65;;
18820;SDS011;9539;59.332;18.034;2023-04-08T11:44:31;4.00;;;1.30;;
18820;SDS011;9539;59.332;18.034;2023-04-08T11:46:53;1.25;;;1.15;;
18820;SDS011;9539;59.332;18.034;2023-04-08T11:49:16;2.63;;;1.20;;
18820;SDS011;9539;59.332;18.034;2023-04-08T11:51:52;2.85;;;1.13;;
18820;SDS011;9539;59.332;18.034;2023-04-08T11:54:24;7.20;;;1.48;;
18820;SDS011;9539;59.332;18.034;2023-04-08T11:56:46;2.40;;;1.10;;
18820;SDS011;9539;59.332;18.034;2023-04-08T11:59:07;4.65;;;1.35;;
18820;SDS011;9539;59.332;18.034;2023-04-08T12:01:31;3.63;;;1.50;;
18820;SDS011;9539;59.332;18.034;2023-04-08T12:03:56;5.47;;;1.35;;
18820;SDS011;9539;59.332;18.034;2023-04-08T12:06:17;7.85;;;1.65;;
18820;SDS011;9539;59.332;18.034;2023-04-08T12:08:39;7.82;;;1.42;;
18820;SDS011;9539;59.332;18.034;2023-04-08T12:11:01;2.78;;;1.10;;
18820;SDS011;9539;59.332;18.034;2023-04-08T12:13:22;11.25;;;1.67;;
18820;SDS011;9539;59.332;18.034;2023-04-08T12:15:44;2.45;;;1.10;;
18820;SDS011;9539;59.332;18.034;2023-04-08T12:18:07;1.20;;;1.02;;
18820;SDS011;9539;59.332;18.034;2023-04-08T12:20:28;1.17;;;1.08;;
18820;SDS011;9539;59.332;18.034;2023-04-08T12:22:50;1.13;;;1.08;;
18820;SDS011;9539;59.332;18.034;2023-04-08T12:25:12;0.95;;;0.95;;
18820;SDS011;9539;59.332;18.034;2023-04-08T12:27:33;1.45;;;1.10;;
18820;SDS011;9539;59.332;18.034;2023-04-08T12:29:55;2.00;;;1.10;;
18820;SDS011;9539;59.332;18.034;2023-04-08T12:32:17;3.03;;;1.20;;
18820;SDS011;9539;59.332;18.034;2023-04-08T12:34:40;3.53;;;1.20;;
18820;SDS011;9539;59.332;18.034;2023-04-08T12:37:01;5.78;;;1.30;;
18820;SDS011;9539;59.332;18.034;2023-04-08T12:39:23;8.10;;;1.40;;
18820;SDS011;9539;59.332;18.034;2023-04-08T12:41:45;5.32;;;1.45;;
18820;SDS011;9539;59.332;18.034;2023-04-08T12:44:06;1.83;;;1.05;;
18820;SDS011;9539;59.332;18.034;2023-04-08T12:46:28;2.10;;;1.20;;
18820;SDS011;9539;59.332;18.034;2023-04-08T12:48:50;4.00;;;1.10;;
18820;SDS011;9539;59.332;18.034;2023-04-08T12:51:13;6.47;;;1.45;;
18820;SDS011;9539;59.332;18.034;2023-04-08T12:53:34;6.10;;;1.50;;
18820;SDS011;9539;59.332;18.034;2023-04-08T12:55:56;1.00;;;0.88;;
18820;SDS011;9539;59.332;18.034;2023-04-08T12:58:17;1.33;;;1.00;;
18820;SDS011;9539;59.332;18.034;2023-04-08T13:00:39;2.97;;;1.48;;
18820;SDS011;9539;59.332;18.034;2023-04-08T13:03:05;1.40;;;1.30;;
18820;SDS011;9539;59.332;18.034;2023-04-08T13:05:27;1.15;;;1.05;;
18820;SDS011;9539;59.332;18.034;2023-04-08T13:07:50;2.80;;;1.10;;
18820;SDS011;9539;59.332;18.034;2023-04-08T13:10:11;1.27;;;1.10;;
18820;SDS011;9539;59.332;18.034;2023-04-08T13:12:33;0.98;;;0.90;;
18820;SDS011;9539;59.332;18.034;2023-04-08T13:14:54;1.00;;;1.00;;
18820;SDS011;9539;59.332;18.034;2023-04-08T13:17:17;1.20;;;1.10;;
18820;SDS011;9539;59.332;18.034;2023-04-08T13:19:39;3.42;;;1.10;;
18820;SDS011;9539;59.332;18.034;2023-04-08T13:22:00;1.85;;;1.10;;
18820;SDS011;9539;59.332;18.034;2023-04-08T13:24:23;1.05;;;0.98;;
18820;SDS011;9539;59.332;18.034;2023-04-08T13:26:45;1.92;;;1.13;;
18820;SDS011;9539;59.332;18.034;2023-04-08T13:29:07;1.73;;;1.00;;
18820;SDS011;9539;59.332;18.034;2023-04-08T13:31:28;1.10;;;1.00;;
18820;SDS011;9539;59.332;18.034;2023-04-08T13:33:50;5.97;;;1.27;;
18820;SDS011;9539;59.332;18.034;2023-04-08T13:36:12;1.08;;;0.95;;
18820;SDS011;9539;59.332;18.034;2023-04-08T13:38:33;1.15;;;1.05;;
18820;SDS011;9539;59.332;18.034;2023-04-08T13:40:57;5.72;;;1.20;;
18820;SDS011;9539;59.332;18.034;2023-04-08T13:43:18;1.50;;;1.13;;
18820;SDS011;9539;59.332;18.034;2023-04-08T13:45:40;1.23;;;1.13;;
18820;SDS011;9539;59.332;18.034;2023-04-08T13:48:02;1.17;;;1.08;;
18820;SDS011;9539;59.332;18.034;2023-04-08T13:50:24;1.40;;;1.00;;
18820;SDS011;9539;59.332;18.034;2023-04-08T13:52:46;1.27;;;1.17;;
18820;SDS011;9539;59.332;18.034;2023-04-08T13:55:07;1.65;;;1.10;;
18820;SDS011;9539;59.332;18.034;2023-04-08T13:57:30;1.00;;;1.00;;
18820;SDS011;9539;59.332;18.034;2023-04-08T13:59:52;1.35;;;1.02;;
18820;SDS011;9539;59.332;18.034;2023-04-08T14:02:13;1.45;;;1.17;;
18820;SDS011;9539;59.332;18.034;2023-04-08T14:04:35;0.88;;;0.88;;
18820;SDS011;9539;59.332;18.034;2023-04-08T14:06:57;1.00;;;1.00;;
18820;SDS011;9539;59.332;18.034;2023-04-08T14:09:18;1.00;;;1.00;;
18820;SDS011;9539;59.332;18.034;2023-04-08T14:11:40;1.58;;;1.10;;
18820;SDS011;9539;59.332;18.034;2023-04-08T14:14:03;1.50;;;1.00;;
18820;SDS011;9539;59.332;18.034;2023-04-08T14:16:25;1.95;;;0.90;;
18820;SDS011;9539;59.332;18.034;2023-04-08T14:18:48;1.48;;;1.00;;
18820;SDS011;9539;59.332;18.034;2023-04-08T14:21:10;3.60;;;1.10;;
18820;SDS011;9539;59.332;18.034;2023-04-08T14:23:33;1.88;;;1.30;;
18820;SDS011;9539;59.332;18.034;2023-04-08T14:25:55;7.13;;;1.00;;